createdAt,value
2022-09-04T00:00:08.048Z,15.50
2022-09-04T00:02:52.878Z,15.51
2022-09-04T00:05:26.749Z,15.51
2022-09-04T00:07:59.262Z,15.59
2022-09-04T00:10:32.219Z,15.56
2022-09-04T00:13:07.239Z,15.61
2022-09-04T00:15:44.942Z,15.64
2022-09-04T00:18:18.285Z,15.60
2022-09-04T00:20:51.835Z,15.63
2022-09-04T00:23:22.143Z,15.58
2022-09-04T00:25:58.631Z,15.40
2022-09-04T00:28:35.620Z,15.32
2022-09-04T00:31:16.117Z,15.41
2022-09-04T00:33:52.785Z,15.44
2022-09-04T00:36:23.520Z,15.36
2022-09-04T00:38:56.986Z,15.32
2022-09-04T00:41:28.157Z,15.41
2022-09-04T00:44:38.516Z,15.51
2022-09-04T00:47:30.684Z,15.58
2022-09-04T00:50:23.803Z,15.64
2022-09-04T00:53:18.707Z,15.68
2022-09-04T00:56:00.171Z,15.73
2022-09-04T00:58:38.365Z,15.75
2022-09-04T01:01:06.791Z,15.72
2022-09-04T01:03:59.402Z,15.81
2022-09-04T01:06:41.793Z,15.72
2022-09-04T01:09:33.530Z,15.89
2022-09-04T01:12:11.093Z,15.90
2022-09-04T01:14:44.310Z,16.04
2022-09-04T01:17:27.754Z,16.08
2022-09-04T01:20:08.591Z,16.07
2022-09-04T01:23:06.854Z,16.01
2022-09-04T01:25:56.151Z,15.93
2022-09-04T01:28:30.818Z,15.92
2022-09-04T01:31:05.481Z,15.92
2022-09-04T01:33:54.868Z,15.90
2022-09-04T01:36:42.895Z,16.00
2022-09-04T01:39:11.327Z,16.06
2022-09-04T01:41:46.389Z,15.97
2022-09-04T01:44:14.672Z,15.81
2022-09-04T01:47:04.440Z,15.69
2022-09-04T01:49:37.961Z,15.64
2022-09-04T01:52:17.486Z,15.67
2022-09-04T01:54:54.318Z,15.58
2022-09-04T01:57:36.845Z,15.66
2022-09-04T02:00:09.667Z,15.72
2022-09-04T02:02:55.965Z,15.62
2022-09-04T02:05:32.715Z,15.45
2022-09-04T02:08:12.165Z,15.35
2022-09-04T02:10:47.331Z,15.27
2022-09-04T02:13:23.267Z,15.33
2022-09-04T02:16:02.744Z,15.32
2022-09-04T02:18:43.621Z,15.24
2022-09-04T02:21:19.571Z,15.16
2022-09-04T02:23:54.160Z,15.12
2022-09-04T02:26:28.214Z,15.13
2022-09-04T02:29:03.902Z,15.12
2022-09-04T02:31:38.797Z,15.08
2022-09-04T02:34:11.004Z,14.97
2022-09-04T02:36:50.109Z,14.93
2022-09-04T02:39:33.683Z,14.89
2022-09-04T02:42:10.780Z,14.99
2022-09-04T02:44:52.545Z,15.14
2022-09-04T02:47:29.133Z,15.19
2022-09-04T02:50:06.784Z,15.21
2022-09-04T02:52:56.805Z,15.21
2022-09-04T02:55:44.759Z,15.25
2022-09-04T02:58:22.640Z,15.34
2022-09-04T03:01:01.727Z,15.36
2022-09-04T03:03:35.949Z,15.42
2022-09-04T03:06:09.878Z,15.43
2022-09-04T03:08:46.155Z,15.54
2022-09-04T03:11:19.200Z,15.51
2022-09-04T03:13:52.061Z,15.89
2022-09-04T03:16:28.102Z,16.20
2022-09-04T03:19:16.569Z,16.45
2022-09-04T03:22:03.966Z,16.82
2022-09-04T03:24:37.139Z,16.90
2022-09-04T03:27:08.311Z,17.01
2022-09-04T03:29:43.755Z,16.89
2022-09-04T03:32:19.163Z,16.93
2022-09-04T03:34:52.461Z,16.94
2022-09-04T03:37:31.718Z,17.05
2022-09-04T03:40:26.041Z,17.18
2022-09-04T03:43:08.569Z,17.22
2022-09-04T03:45:44.567Z,17.38
2022-09-04T03:48:28.687Z,17.30
2022-09-04T03:51:01.195Z,17.13
2022-09-04T03:53:39.359Z,16.82
2022-09-04T03:56:30.910Z,16.88
2022-09-04T03:59:04.874Z,17.19
2022-09-04T04:01:43.199Z,17.34
2022-09-04T04:04:38.093Z,17.47
2022-09-04T04:07:12.646Z,17.67
2022-09-04T04:09:55.736Z,17.66
2022-09-04T04:12:39.238Z,17.63
2022-09-04T04:15:17.629Z,17.14
2022-09-04T04:18:01.244Z,17.18
2022-09-04T04:20:41.219Z,17.38
2022-09-04T04:23:30.592Z,17.33
2022-09-04T04:26:10.553Z,17.45
2022-09-04T04:29:11.486Z,17.32
2022-09-04T04:32:10.039Z,17.37
2022-09-04T04:34:48.083Z,17.44
2022-09-04T04:37:26.420Z,17.62
2022-09-04T04:40:03.683Z,17.82
2022-09-04T04:42:41.985Z,17.93
2022-09-04T04:45:38.177Z,18.08
2022-09-04T04:48:37.797Z,18.26
2022-09-04T04:51:20.823Z,18.45
2022-09-04T04:53:59.529Z,18.62
2022-09-04T04:56:36.848Z,18.75
2022-09-04T04:59:20.762Z,18.77
2022-09-04T05:02:00.675Z,18.73
2022-09-04T05:04:40.621Z,18.81
2022-09-04T05:07:17.816Z,18.89
2022-09-04T05:09:59.204Z,19.09
2022-09-04T05:12:49.570Z,18.75
2022-09-04T05:15:24.292Z,18.75
2022-09-04T05:17:56.095Z,18.90
2022-09-04T05:20:40.044Z,19.06
2022-09-04T05:23:28.730Z,19.17
2022-09-04T05:26:08.204Z,19.21
2022-09-04T05:28:47.262Z,19.39
2022-09-04T05:31:24.008Z,19.51
2022-09-04T05:34:01.455Z,19.56
2022-09-04T05:36:42.784Z,19.05
2022-09-04T05:39:21.131Z,18.97
2022-09-04T05:42:06.843Z,18.93
2022-09-04T05:44:52.783Z,18.88
2022-09-04T05:47:32.624Z,18.99
2022-09-04T05:50:32.475Z,19.22
2022-09-04T05:53:22.165Z,19.46
2022-09-04T05:56:19.871Z,19.67
2022-09-04T05:59:09.687Z,19.20
2022-09-04T06:02:04.614Z,19.61
2022-09-04T06:05:08.358Z,19.77
2022-09-04T06:07:41.835Z,19.75
2022-09-04T06:10:18.227Z,19.62
2022-09-04T06:13:11.188Z,19.46
2022-09-04T06:15:51.743Z,19.84
2022-09-04T06:18:43.334Z,20.17
2022-09-04T06:21:40.092Z,20.45
2022-09-04T06:24:26.679Z,20.69
2022-09-04T06:27:14.219Z,20.85
2022-09-04T06:29:57.079Z,21.09
2022-09-04T06:32:56.115Z,21.16
2022-09-04T06:35:36.414Z,21.21
2022-09-04T06:38:18.837Z,21.17
2022-09-04T06:40:59.476Z,21.37
2022-09-04T06:43:38.011Z,21.59
2022-09-04T06:46:17.820Z,21.10
2022-09-04T06:48:57.446Z,21.27
2022-09-04T06:51:45.168Z,21.31
2022-09-04T06:54:19.009Z,21.58
2022-09-04T06:57:05.801Z,21.89
2022-09-04T06:59:56.617Z,22.12
2022-09-04T07:02:41.747Z,21.81
2022-09-04T07:05:22.699Z,21.39
2022-09-04T07:08:01.096Z,21.40
2022-09-04T07:10:34.274Z,21.36
2022-09-04T07:13:38.831Z,19.68
2022-09-04T07:16:21.956Z,19.19
2022-09-04T07:19:13.895Z,19.23
2022-09-04T07:21:52.315Z,20.25
2022-09-04T07:24:46.200Z,20.83
2022-09-04T07:27:22.209Z,20.37
2022-09-04T07:29:55.601Z,20.32
2022-09-04T07:32:30.706Z,20.34
2022-09-04T07:35:07.848Z,19.83
2022-09-04T07:37:44.471Z,20.43
2022-09-04T07:40:17.687Z,20.17
2022-09-04T07:42:53.297Z,20.52
2022-09-04T07:45:30.999Z,20.33
2022-09-04T07:48:12.687Z,21.48
2022-09-04T07:51:03.577Z,20.98
2022-09-04T07:53:53.707Z,20.03
2022-09-04T07:56:32.306Z,20.14
2022-09-04T07:59:21.263Z,20.00
2022-09-04T08:02:09.044Z,19.80
2022-09-04T08:05:03.319Z,19.78
2022-09-04T08:08:17.900Z,19.39
2022-09-04T08:11:03.565Z,20.64
2022-09-04T08:14:00.472Z,21.65
2022-09-04T08:16:36.169Z,22.41
2022-09-04T08:19:19.674Z,22.46
2022-09-04T08:21:53.173Z,23.06
2022-09-04T08:24:53.358Z,23.55
2022-09-04T08:27:44.237Z,23.75
2022-09-04T08:30:15.781Z,24.02
2022-09-04T08:33:24.623Z,24.30
2022-09-04T08:36:01.739Z,24.45
2022-09-04T08:38:56.512Z,24.69
2022-09-04T08:42:20.922Z,24.94
2022-09-04T08:45:22.291Z,25.19
2022-09-04T08:48:32.560Z,23.28
2022-09-04T08:51:34.579Z,23.62
2022-09-04T08:54:37.133Z,23.84
2022-09-04T08:57:35.187Z,23.30
2022-09-04T09:00:09.868Z,23.22
2022-09-04T09:03:15.138Z,23.83
2022-09-04T09:06:17.611Z,24.57
2022-09-04T09:09:31.699Z,23.55
2022-09-04T09:12:28.260Z,23.71
2022-09-04T09:15:26.486Z,22.60
2022-09-04T09:18:03.934Z,22.64
2022-09-04T09:20:48.719Z,23.78
2022-09-04T09:23:19.826Z,24.71
2022-09-04T09:25:57.797Z,25.72
2022-09-04T09:29:03.741Z,27.08
2022-09-04T09:32:31.041Z,26.40
2022-09-04T09:35:37.135Z,25.47
2022-09-04T09:38:32.205Z,25.11
2022-09-04T09:41:43.524Z,23.50
2022-09-04T09:44:37.394Z,25.24
2022-09-04T09:47:23.269Z,25.98
2022-09-04T09:50:13.742Z,24.53
2022-09-04T09:53:23.738Z,24.49
2022-09-04T09:56:19.697Z,22.71
2022-09-04T09:59:26.132Z,22.13
2022-09-04T10:02:34.973Z,22.52
2022-09-04T10:05:44.906Z,22.64
2022-09-04T10:08:58.451Z,24.95
2022-09-04T10:12:04.152Z,27.12
2022-09-04T10:14:57.058Z,28.41
2022-09-04T10:17:55.883Z,29.57
2022-09-04T10:20:43.675Z,29.00
2022-09-04T10:24:07.271Z,29.64
2022-09-04T10:27:28.595Z,30.98
2022-09-04T10:30:08.509Z,33.15
2022-09-04T10:33:11.706Z,29.62
2022-09-04T10:36:01.273Z,31.63
2022-09-04T10:39:17.401Z,32.15
2022-09-04T10:42:10.469Z,31.12
2022-09-04T10:45:05.129Z,29.61
2022-09-04T10:47:59.102Z,32.04
2022-09-04T10:50:38.115Z,29.66
2022-09-04T10:53:28.578Z,31.27
2022-09-04T10:56:10.098Z,32.55
2022-09-04T10:58:58.450Z,27.75
2022-09-04T11:02:08.166Z,28.27
2022-09-04T11:05:07.830Z,32.63
2022-09-04T11:08:13.030Z,34.31
2022-09-04T11:11:05.850Z,34.08
2022-09-04T11:14:06.715Z,37.13
2022-09-04T11:17:11.119Z,37.23
2022-09-04T11:20:18.104Z,33.20
2022-09-04T11:23:34.538Z,34.74
2022-09-04T11:26:39.356Z,30.73
2022-09-04T11:29:25.884Z,31.02
2022-09-04T11:32:15.922Z,36.25
2022-09-04T11:35:14.047Z,33.70
2022-09-04T11:38:10.251Z,38.59
2022-09-04T11:41:28.469Z,39.68
2022-09-04T11:44:36.799Z,37.49
2022-09-04T11:47:25.541Z,37.64
2022-09-04T11:50:24.361Z,37.33
2022-09-04T11:53:43.464Z,35.77
2022-09-04T11:56:39.212Z,36.12
2022-09-04T11:59:27.918Z,40.02
2022-09-04T12:02:30.836Z,39.50
2022-09-04T12:05:16.864Z,33.52
2022-09-04T12:08:04.809Z,34.59
2022-09-04T12:10:52.535Z,39.49
2022-09-04T12:13:45.210Z,33.34
2022-09-04T12:16:33.815Z,34.79
2022-09-04T12:19:31.127Z,39.52
2022-09-04T12:22:20.567Z,36.26
2022-09-04T12:25:08.132Z,35.84
2022-09-04T12:28:02.704Z,32.14
2022-09-04T12:30:48.554Z,35.82
2022-09-04T12:33:38.669Z,38.01
2022-09-04T12:36:33.289Z,40.21
2022-09-04T12:39:49.294Z,40.52
2022-09-04T12:42:22.259Z,36.74
2022-09-04T12:45:03.532Z,36.05
2022-09-04T12:47:43.785Z,38.39
2022-09-04T12:50:29.851Z,41.38
2022-09-04T12:53:19.292Z,44.40
2022-09-04T12:56:00.940Z,45.83
2022-09-04T12:58:42.919Z,44.95
2022-09-04T13:01:17.339Z,41.09
2022-09-04T13:03:58.934Z,43.44
2022-09-04T13:06:38.969Z,44.33
2022-09-04T13:09:18.945Z,43.26
2022-09-04T13:11:57.784Z,42.27
2022-09-04T13:14:44.121Z,43.32
2022-09-04T13:17:21.700Z,37.81
2022-09-04T13:19:55.909Z,40.31
2022-09-04T13:22:39.518Z,35.73
2022-09-04T13:25:16.144Z,34.36
2022-09-04T13:28:04.718Z,37.77
2022-09-04T13:30:36.171Z,33.11
2022-09-04T13:33:18.535Z,36.05
2022-09-04T13:35:59.619Z,36.39
2022-09-04T13:39:02.132Z,38.65
2022-09-04T13:42:10.920Z,38.67
2022-09-04T13:45:05.966Z,42.47
2022-09-04T13:47:45.514Z,45.21
2022-09-04T13:50:25.516Z,39.50
2022-09-04T13:52:59.697Z,37.16
2022-09-04T13:55:36.490Z,37.12
2022-09-04T13:58:11.525Z,39.75
2022-09-04T14:00:47.015Z,40.57
2022-09-04T14:03:27.041Z,41.94
2022-09-04T14:05:55.413Z,38.74
2022-09-04T14:08:25.576Z,39.78
2022-09-04T14:11:24.337Z,40.96
2022-09-04T14:14:21.260Z,39.31
2022-09-04T14:16:49.688Z,32.59
2022-09-04T14:19:36.415Z,30.42
2022-09-04T14:22:17.630Z,34.44
2022-09-04T14:24:56.416Z,35.80
2022-09-04T14:27:33.353Z,37.21
2022-09-04T14:30:08.532Z,41.53
2022-09-04T14:32:58.024Z,42.05
2022-09-04T14:35:36.019Z,39.12
2022-09-04T14:38:36.362Z,41.30
2022-09-04T14:41:20.583Z,37.78
2022-09-04T14:44:07.001Z,39.82
2022-09-04T14:46:41.409Z,39.50
2022-09-04T14:49:15.514Z,40.96
2022-09-04T14:51:48.802Z,34.75
2022-09-04T14:54:26.300Z,33.83
2022-09-04T14:56:58.084Z,34.16
2022-09-04T14:59:33.051Z,34.29
2022-09-04T15:02:18.479Z,36.50
2022-09-04T15:04:51.629Z,37.50
2022-09-04T15:07:32.864Z,36.88
2022-09-04T15:10:11.122Z,37.95
2022-09-04T15:12:44.107Z,40.30
2022-09-04T15:15:20.794Z,38.23
2022-09-04T15:17:54.101Z,36.70
2022-09-04T15:20:25.383Z,33.03
2022-09-04T15:22:59.780Z,35.25
2022-09-04T15:25:59.116Z,38.37
2022-09-04T15:28:38.691Z,39.95
2022-09-04T15:31:16.823Z,42.10
2022-09-04T15:33:49.053Z,43.17
2022-09-04T15:36:24.894Z,42.76
2022-09-04T15:38:56.954Z,41.77
2022-09-04T15:41:37.248Z,41.11
2022-09-04T15:44:16.623Z,40.90
2022-09-04T15:46:58.918Z,41.84
2022-09-04T15:49:40.811Z,42.12
2022-09-04T15:52:24.576Z,41.59
2022-09-04T15:55:10.643Z,41.70
2022-09-04T15:57:59.813Z,41.97
2022-09-04T16:00:32.463Z,39.92
2022-09-04T16:03:12.174Z,40.62
2022-09-04T16:05:45.619Z,38.38
2022-09-04T16:08:23.549Z,37.70
2022-09-04T16:11:00.152Z,38.09
2022-09-04T16:13:46.545Z,38.92
2022-09-04T16:16:20.457Z,38.79
2022-09-04T16:19:02.662Z,37.66
2022-09-04T16:21:43.199Z,37.80
2022-09-04T16:24:16.488Z,38.45
2022-09-04T16:26:49.281Z,38.06
2022-09-04T16:29:36.011Z,38.25
2022-09-04T16:32:07.102Z,37.62
2022-09-04T16:34:46.987Z,37.77
2022-09-04T16:37:20.445Z,36.70
2022-09-04T16:40:00.678Z,36.36
2022-09-04T16:42:38.235Z,35.97
2022-09-04T16:45:15.453Z,35.79
2022-09-04T16:47:51.775Z,36.09
2022-09-04T16:50:28.864Z,36.57
2022-09-04T16:53:13.442Z,35.28
2022-09-04T16:55:59.186Z,35.50
2022-09-04T16:58:43.279Z,35.08
2022-09-04T17:01:18.956Z,35.10
2022-09-04T17:04:13.565Z,36.09
2022-09-04T17:07:00.299Z,36.56
2022-09-04T17:09:35.504Z,36.40
2022-09-04T17:12:18.196Z,35.36
2022-09-04T17:14:54.337Z,34.60
2022-09-04T17:17:31.393Z,34.57
2022-09-04T17:20:10.324Z,34.29
2022-09-04T17:29:01.037Z,33.46
2022-09-04T17:29:10.112Z,32.48
2022-09-04T17:29:19.234Z,32.07
2022-09-04T17:31:45.627Z,31.57
2022-09-04T17:40:25.126Z,31.50
2022-09-04T17:40:44.001Z,30.46
2022-09-04T17:40:48.439Z,31.39
2022-09-04T17:43:22.209Z,29.44
2022-09-04T17:46:02.651Z,28.70
2022-09-04T17:48:33.865Z,28.20
2022-09-04T17:51:05.279Z,28.04
2022-09-04T17:53:38.932Z,27.85
2022-09-04T17:56:15.832Z,27.60
2022-09-04T17:58:50.350Z,27.25
2022-09-04T18:01:23.422Z,27.02
2022-09-04T18:04:22.030Z,26.82
2022-09-04T18:06:59.010Z,26.53
2022-09-04T18:09:37.518Z,26.25
2022-09-04T18:12:18.155Z,25.98
2022-09-04T18:15:25.249Z,25.74
2022-09-04T18:17:54.660Z,25.46
2022-09-04T18:20:29.471Z,25.28
2022-09-04T18:23:16.480Z,25.07
2022-09-04T18:25:50.784Z,24.61
2022-09-04T18:28:27.236Z,24.26
2022-09-04T18:37:06.173Z,24.01
2022-09-04T18:37:17.224Z,23.63
2022-09-04T18:37:23.607Z,23.76
2022-09-04T18:39:51.574Z,23.52
2022-09-04T18:47:58.113Z,23.55
2022-09-04T18:50:29.883Z,23.57
2022-09-04T18:50:40.369Z,23.60
2022-09-04T18:51:21.857Z,23.55
2022-09-04T18:53:54.081Z,23.49
2022-09-04T18:56:26.868Z,23.37
2022-09-04T18:59:01.314Z,23.23
2022-09-04T19:01:41.064Z,23.14
2022-09-04T19:04:32.828Z,22.97
2022-09-04T19:07:07.603Z,22.86
2022-09-04T19:09:58.875Z,22.77
2022-09-04T19:12:46.620Z,22.70
2022-09-04T19:15:37.089Z,22.60
2022-09-04T19:18:17.401Z,22.52
2022-09-04T19:20:50.002Z,22.41
2022-09-04T19:23:27.792Z,22.41
2022-09-04T19:26:01.362Z,22.39
2022-09-04T19:28:53.137Z,22.23
2022-09-04T19:31:31.355Z,22.15
2022-09-04T19:34:06.534Z,21.98
2022-09-04T19:36:40.459Z,21.88
2022-09-04T19:45:56.851Z,21.82
2022-09-04T19:46:18.372Z,21.83
2022-09-04T19:46:19.900Z,21.82
2022-09-04T19:48:22.094Z,21.76
2022-09-04T19:53:19.777Z,21.57
2022-09-04T19:53:57.532Z,21.51
2022-09-04T19:56:31.892Z,21.40
2022-09-04T19:59:15.575Z,21.37
2022-09-04T20:01:48.579Z,21.31
2022-09-04T20:04:33.330Z,21.24
2022-09-04T20:07:10.725Z,21.10
2022-09-04T20:09:44.518Z,21.01
2022-09-04T20:12:19.070Z,20.97
2022-09-04T20:14:55.274Z,21.00
2022-09-04T20:17:39.664Z,20.88
2022-09-04T20:20:19.593Z,20.82
2022-09-04T20:23:00.328Z,20.70
2022-09-04T20:25:49.145Z,20.66
2022-09-04T20:28:25.142Z,20.67
2022-09-04T20:31:35.298Z,20.68
2022-09-04T20:34:09.520Z,20.62
2022-09-04T20:36:49.016Z,20.51
2022-09-04T20:39:27.748Z,20.39
2022-09-04T20:41:59.585Z,20.42
2022-09-04T20:44:55.194Z,20.43
2022-09-04T20:52:50.799Z,20.36
2022-09-04T20:52:51.291Z,20.22
2022-09-04T20:53:25.100Z,20.10
2022-09-04T20:56:20.646Z,19.99
2022-09-04T21:03:06.534Z,20.07
2022-09-04T21:03:17.386Z,20.12
2022-09-04T21:05:28.899Z,20.06
2022-09-04T21:08:08.354Z,19.90
2022-09-04T21:10:42.552Z,19.84
2022-09-04T21:13:20.065Z,19.83
2022-09-04T21:15:59.223Z,19.82
2022-09-04T21:19:11.354Z,19.84
2022-09-04T21:21:50.825Z,19.69
2022-09-04T21:24:44.901Z,19.63
2022-09-04T21:27:45.845Z,19.46
2022-09-04T21:30:19.129Z,19.33
2022-09-04T21:33:04.127Z,19.28
2022-09-04T21:35:55.694Z,19.30
2022-09-04T21:39:00.208Z,19.29
2022-09-04T21:41:49.476Z,19.23
2022-09-04T21:44:37.131Z,19.26
2022-09-04T21:47:31.355Z,19.28
2022-09-04T21:50:39.250Z,19.32
2022-09-04T21:53:41.935Z,19.23
2022-09-04T21:59:36.719Z,19.14
2022-09-04T22:02:39.554Z,19.08
2022-09-04T22:02:54.425Z,18.99
2022-09-04T22:05:33.761Z,18.96
2022-09-04T22:12:05.038Z,18.89
2022-09-04T22:13:30.626Z,18.92
2022-09-04T22:14:16.667Z,18.79
2022-09-04T22:17:04.810Z,18.83
2022-09-04T22:20:15.021Z,18.77
2022-09-04T22:23:20.527Z,18.73
2022-09-04T22:26:23.611Z,18.66
2022-09-04T22:29:18.506Z,18.68
2022-09-04T22:32:33.819Z,18.61
2022-09-04T22:35:43.520Z,18.52
2022-09-04T22:38:32.936Z,18.54
2022-09-04T22:41:22.575Z,18.55
2022-09-04T22:44:06.377Z,18.55
2022-09-04T22:46:45.241Z,18.62
2022-09-04T22:49:47.435Z,18.61
2022-09-04T22:52:35.475Z,18.58
2022-09-04T22:55:39.542Z,18.45
2022-09-04T22:58:29.929Z,18.36
2022-09-04T23:01:15.199Z,18.28
2022-09-04T23:04:04.973Z,18.16
2022-09-04T23:11:59.913Z,18.16
2022-09-04T23:13:58.661Z,18.20
2022-09-04T23:13:59.148Z,18.04
2022-09-04T23:16:32.589Z,17.97
2022-09-04T23:23:38.449Z,17.89
2022-09-04T23:26:36.243Z,17.80
2022-09-04T23:26:52.826Z,17.67
2022-09-04T23:28:27.720Z,17.66
2022-09-04T23:31:08.820Z,17.69
2022-09-04T23:34:07.336Z,17.61
2022-09-04T23:37:13.842Z,17.54
2022-09-04T23:40:04.775Z,17.40
2022-09-04T23:42:56.562Z,16.91
2022-09-04T23:45:52.854Z,16.33
2022-09-04T23:48:54.249Z,16.01
2022-09-04T23:51:30.682Z,15.87
2022-09-04T23:54:33.514Z,15.85
2022-09-04T23:57:11.135Z,16.00
